Ne plus se rappeler de moi
Bonjour et Bienvenue
Pas de session ouverte
Dimanche 07/02/2016
d:\inetpub\wwwroot\acrroussillon\reservation\ACR\IMAGES\IMG1.JPGd:\inetpub\wwwroot\acrroussillon\reservation\ACR\IMAGES\IMG2.JPGd:\inetpub\wwwroot\acrroussillon\reservation\ACR/IMAGES/IMG3.jpg
00:00:00
Horaires du 07/02/2016 (Données à titre indicatif seulement).
Lever du soleil : 07h56 - Coucher du soleil : 18h09 (Heure Locale)
Jour aéronautique : 07h26 - Nuit aéronautique : 18h39 (Heure Locale)
Planning des réservations des aéronefs
Planning des réservations des aéronefs
2016/02/07 00:30
LFMP 070030Z AUTO 17013KT CAVOK 14/04 Q1006
Planning des réservations des aéronefs
2016/02/06 18:21
TAF LFMP 061700Z 0618/0718 16015KT CAVOK
BECMG 0703/0705 30015G30KT RA BKN010
BECMG 0710/0712 31020G35KT 9999 NSW NSC
Informations sur les aéronefs
Informations sur les aéronefs
Modifications des Types de vols
ATTENTION PLUS DE PAIEMENT EN LIGNE DEPUIS LA MAISON
AEROCLUB DU ROUSSILLON. AVENUE MAURICE BELLONTE. 66000 PERPIGNAN. Tel : 04.68.73.48.18 Fax : 09.55.16.18.97 Courriel : aeroclub-roussillon@hotmail.fr
 METAR / TAF
LIENS UTILES
envoyer un e-mail
d:\inetpub\wwwroot\acrroussillon\reservation\ACR/IMAGES/Logo.jpg
Identifiez vous pour interaction
d:\inetpub\wwwroot\acrroussillon\reservation\ACR/IMAGES/Logo.jpg
Aéro-Club du Roussillon